Terminal Aerodrome Forecast
Issued by NWS

Home | Current Version | Previous Version | Text Only | Print | Product List | Glossary On
Versions: 1 2 3 4 5 6 7 8 9 10 11 12 13 14 15 16 17 18 19
000
FTUS45 KBOU 271732
TAFBJC
TAF
KBJC 271732Z 2718/2818 09006KT P6SM FEW080 SCT120
     FM272100 15006KT P6SM SCT060 BKN100 BKN150
     FM272300 15008KT P6SM VCSH SCT030 SCT060 OVC080
      TEMPO 2800/2804 -SHRA BKN050
     FM280400 33006KT P6SM VCSH SCT060 BKN080
     FM281000 33006KT P6SM SCT005 BKN012
     FM281700 36006KT P6SM VCSH SCT005 BKN010=

USA.gov is the U.S. government's official web portal to all federal, state and local government web resources and services.